sensor_id;sensor_type;location;lat;lon;timestamp;temperature;humidity
71304;DHT22;59091;47.446;19.148;2024-02-16T00:00:08;10.14;65.77
71304;DHT22;59091;47.446;19.148;2024-02-16T00:02:33;10.09;65.87
71304;DHT22;59091;47.446;19.148;2024-02-16T00:04:59;10.05;65.72
71304;DHT22;59091;47.446;19.148;2024-02-16T00:07:24;10.00;65.61
71304;DHT22;59091;47.446;19.148;2024-02-16T00:09:50;10.02;65.75
71304;DHT22;59091;47.446;19.148;2024-02-16T00:12:15;9.99;65.74
71304;DHT22;59091;47.446;19.148;2024-02-16T00:14:42;10.06;65.60
71304;DHT22;59091;47.446;19.148;2024-02-16T00:17:07;10.06;65.68
71304;DHT22;59091;47.446;19.148;2024-02-16T00:19:35;10.09;65.65
71304;DHT22;59091;47.446;19.148;2024-02-16T00:22:00;10.09;65.56
71304;DHT22;59091;47.446;19.148;2024-02-16T00:24:26;10.05;65.32
71304;DHT22;59091;47.446;19.148;2024-02-16T00:26:51;10.10;65.18
71304;DHT22;59091;47.446;19.148;2024-02-16T00:29:17;10.03;65.28
71304;DHT22;59091;47.446;19.148;2024-02-16T00:31:42;10.09;65.23
71304;DHT22;59091;47.446;19.148;2024-02-16T00:34:07;10.05;65.47
71304;DHT22;59091;47.446;19.148;2024-02-16T00:36:33;10.10;65.26
71304;DHT22;59091;47.446;19.148;2024-02-16T00:38:59;10.03;65.33
71304;DHT22;59091;47.446;19.148;2024-02-16T00:41:25;9.99;65.70
71304;DHT22;59091;47.446;19.148;2024-02-16T00:43:51;9.99;65.71
71304;DHT22;59091;47.446;19.148;2024-02-16T00:46:18;9.89;65.90
71304;DHT22;59091;47.446;19.148;2024-02-16T00:48:44;9.92;65.83
71304;DHT22;59091;47.446;19.148;2024-02-16T00:51:09;9.95;65.68
71304;DHT22;59091;47.446;19.148;2024-02-16T00:53:35;9.97;65.55
71304;DHT22;59091;47.446;19.148;2024-02-16T00:56:00;9.99;65.55
71304;DHT22;59091;47.446;19.148;2024-02-16T00:58:25;9.99;65.48
71304;DHT22;59091;47.446;19.148;2024-02-16T01:00:51;9.93;65.43
71304;DHT22;59091;47.446;19.148;2024-02-16T01:03:16;9.93;65.39
71304;DHT22;59091;47.446;19.148;2024-02-16T01:05:42;9.93;65.31
71304;DHT22;59091;47.446;19.148;2024-02-16T01:08:07;9.99;65.29
71304;DHT22;59091;47.446;19.148;2024-02-16T01:10:32;9.90;65.30
71304;DHT22;59091;47.446;19.148;2024-02-16T01:12:58;9.96;65.20
71304;DHT22;59091;47.446;19.148;2024-02-16T01:15:23;9.96;65.37
71304;DHT22;59091;47.446;19.148;2024-02-16T01:17:49;9.99;65.34
71304;DHT22;59091;47.446;19.148;2024-02-16T01:20:15;9.99;65.18
71304;DHT22;59091;47.446;19.148;2024-02-16T01:22:40;9.97;65.30
71304;DHT22;59091;47.446;19.148;2024-02-16T01:25:08;9.96;65.32
71304;DHT22;59091;47.446;19.148;2024-02-16T01:27:34;9.92;65.36
71304;DHT22;59091;47.446;19.148;2024-02-16T01:30:00;9.83;65.46
71304;DHT22;59091;47.446;19.148;2024-02-16T01:32:27;9.83;65.24
71304;DHT22;59091;47.446;19.148;2024-02-16T01:34:52;9.86;65.33
71304;DHT22;59091;47.446;19.148;2024-02-16T01:37:18;9.86;65.44
71304;DHT22;59091;47.446;19.148;2024-02-16T01:39:44;9.75;65.79
71304;DHT22;59091;47.446;19.148;2024-02-16T01:42:09;9.82;65.55
71304;DHT22;59091;47.446;19.148;2024-02-16T01:44:35;9.69;65.37
71304;DHT22;59091;47.446;19.148;2024-02-16T01:47:01;9.75;65.37
71304;DHT22;59091;47.446;19.148;2024-02-16T01:49:26;9.62;65.72
71304;DHT22;59091;47.446;19.148;2024-02-16T01:51:52;9.69;65.66
71304;DHT22;59091;47.446;19.148;2024-02-16T01:54:18;9.74;65.72
71304;DHT22;59091;47.446;19.148;2024-02-16T01:56:44;9.75;65.62
71304;DHT22;59091;47.446;19.148;2024-02-16T01:59:10;9.71;65.78
71304;DHT22;59091;47.446;19.148;2024-02-16T02:01:35;9.74;65.48
71304;DHT22;59091;47.446;19.148;2024-02-16T02:04:01;9.71;65.62
71304;DHT22;59091;47.446;19.148;2024-02-16T02:06:27;9.75;65.68
71304;DHT22;59091;47.446;19.148;2024-02-16T02:08:52;9.78;65.88
71304;DHT22;59091;47.446;19.148;2024-02-16T02:11:18;9.75;65.59
71304;DHT22;59091;47.446;19.148;2024-02-16T02:13:43;9.61;65.75
71304;DHT22;59091;47.446;19.148;2024-02-16T02:16:10;9.62;65.53
71304;DHT22;59091;47.446;19.148;2024-02-16T02:18:36;9.36;66.42
71304;DHT22;59091;47.446;19.148;2024-02-16T02:21:01;9.41;66.07
71304;DHT22;59091;47.446;19.148;2024-02-16T02:23:26;9.42;66.00
71304;DHT22;59091;47.446;19.148;2024-02-16T02:25:52;9.39;65.88
71304;DHT22;59091;47.446;19.148;2024-02-16T02:28:18;9.28;66.19
71304;DHT22;59091;47.446;19.148;2024-02-16T02:30:44;9.20;66.45
71304;DHT22;59091;47.446;19.148;2024-02-16T02:33:12;9.21;66.47
71304;DHT22;59091;47.446;19.148;2024-02-16T02:35:39;9.20;66.54
71304;DHT22;59091;47.446;19.148;2024-02-16T02:38:04;9.11;66.74
71304;DHT22;59091;47.446;19.148;2024-02-16T02:40:31;9.07;66.86
71304;DHT22;59091;47.446;19.148;2024-02-16T02:42:57;9.10;66.60
71304;DHT22;59091;47.446;19.148;2024-02-16T02:45:22;9.07;66.56
71304;DHT22;59091;47.446;19.148;2024-02-16T02:47:48;9.07;66.63
71304;DHT22;59091;47.446;19.148;2024-02-16T02:50:13;9.00;66.79
71304;DHT22;59091;47.446;19.148;2024-02-16T02:52:39;8.94;66.78
71304;DHT22;59091;47.446;19.148;2024-02-16T02:55:06;8.87;67.15
71304;DHT22;59091;47.446;19.148;2024-02-16T02:57:31;8.80;67.42
71304;DHT22;59091;47.446;19.148;2024-02-16T03:00:07;8.73;67.30
71304;DHT22;59091;47.446;19.148;2024-02-16T03:02:42;8.69;67.70
71304;DHT22;59091;47.446;19.148;2024-02-16T03:05:09;8.63;67.80
71304;DHT22;59091;47.446;19.148;2024-02-16T03:07:34;8.60;67.82
71304;DHT22;59091;47.446;19.148;2024-02-16T03:10:00;8.60;67.97
71304;DHT22;59091;47.446;19.148;2024-02-16T03:12:25;8.52;68.15
71304;DHT22;59091;47.446;19.148;2024-02-16T03:14:51;8.53;68.20
71304;DHT22;59091;47.446;19.148;2024-02-16T03:17:16;8.53;68.21
71304;DHT22;59091;47.446;19.148;2024-02-16T03:19:42;8.52;68.23
71304;DHT22;59091;47.446;19.148;2024-02-16T03:22:07;8.49;68.26
71304;DHT22;59091;47.446;19.148;2024-02-16T03:24:33;8.50;68.31
71304;DHT22;59091;47.446;19.148;2024-02-16T03:26:59;8.49;68.29
71304;DHT22;59091;47.446;19.148;2024-02-16T03:29:25;8.48;68.30
71304;DHT22;59091;47.446;19.148;2024-02-16T03:31:50;8.45;68.42
71304;DHT22;59091;47.446;19.148;2024-02-16T03:34:16;8.42;68.38
71304;DHT22;59091;47.446;19.148;2024-02-16T03:36:42;8.41;68.45
71304;DHT22;59091;47.446;19.148;2024-02-16T03:39:07;8.35;68.66
71304;DHT22;59091;47.446;19.148;2024-02-16T03:41:34;8.35;68.69
71304;DHT22;59091;47.446;19.148;2024-02-16T03:43:59;8.33;68.69
71304;DHT22;59091;47.446;19.148;2024-02-16T03:46:25;8.29;68.76
71304;DHT22;59091;47.446;19.148;2024-02-16T03:48:51;8.29;68.66
71304;DHT22;59091;47.446;19.148;2024-02-16T03:51:16;8.18;69.07
71304;DHT22;59091;47.446;19.148;2024-02-16T03:53:42;8.09;69.51
71304;DHT22;59091;47.446;19.148;2024-02-16T03:56:10;8.05;69.54
71304;DHT22;59091;47.446;19.148;2024-02-16T03:58:36;8.08;69.40
71304;DHT22;59091;47.446;19.148;2024-02-16T04:01:01;8.06;69.29
71304;DHT22;59091;47.446;19.148;2024-02-16T04:03:26;7.95;69.58
71304;DHT22;59091;47.446;19.148;2024-02-16T04:05:52;7.87;69.99
71304;DHT22;59091;47.446;19.148;2024-02-16T04:08:18;7.84;70.06
71304;DHT22;59091;47.446;19.148;2024-02-16T04:10:45;7.82;70.00
71304;DHT22;59091;47.446;19.148;2024-02-16T04:13:11;7.85;69.96
71304;DHT22;59091;47.446;19.148;2024-02-16T04:15:36;7.77;70.03
71304;DHT22;59091;47.446;19.148;2024-02-16T04:18:02;7.81;69.92
71304;DHT22;59091;47.446;19.148;2024-02-16T04:20:27;7.81;69.83
71304;DHT22;59091;47.446;19.148;2024-02-16T04:22:52;7.82;69.71
71304;DHT22;59091;47.446;19.148;2024-02-16T04:25:18;7.81;69.73
71304;DHT22;59091;47.446;19.148;2024-02-16T04:27:43;7.80;69.68
71304;DHT22;59091;47.446;19.148;2024-02-16T04:30:09;7.73;69.90
71304;DHT22;59091;47.446;19.148;2024-02-16T04:32:34;7.74;69.88
71304;DHT22;59091;47.446;19.148;2024-02-16T04:35:00;7.59;70.41
71304;DHT22;59091;47.446;19.148;2024-02-16T04:37:25;7.67;70.21
71304;DHT22;59091;47.446;19.148;2024-02-16T04:39:51;7.66;70.23
71304;DHT22;59091;47.446;19.148;2024-02-16T04:42:17;7.59;70.38
71304;DHT22;59091;47.446;19.148;2024-02-16T04:44:43;7.54;70.51
71304;DHT22;59091;47.446;19.148;2024-02-16T04:47:08;7.54;70.36
71304;DHT22;59091;47.446;19.148;2024-02-16T04:49:37;7.56;70.41
71304;DHT22;59091;47.446;19.148;2024-02-16T04:52:03;7.54;70.38
71304;DHT22;59091;47.446;19.148;2024-02-16T04:54:29;7.47;70.46
71304;DHT22;59091;47.446;19.148;2024-02-16T04:56:54;7.49;70.51
71304;DHT22;59091;47.446;19.148;2024-02-16T04:59:20;7.47;70.41
71304;DHT22;59091;47.446;19.148;2024-02-16T05:01:46;7.46;70.24
71304;DHT22;59091;47.446;19.148;2024-02-16T05:04:11;7.43;70.14
71304;DHT22;59091;47.446;19.148;2024-02-16T05:06:42;7.40;70.05
71304;DHT22;59091;47.446;19.148;2024-02-16T05:09:08;7.37;69.98
71304;DHT22;59091;47.446;19.148;2024-02-16T05:11:33;7.36;69.98
71304;DHT22;59091;47.446;19.148;2024-02-16T05:13:59;7.33;70.03
71304;DHT22;59091;47.446;19.148;2024-02-16T05:16:25;7.30;70.04
71304;DHT22;59091;47.446;19.148;2024-02-16T05:18:51;7.30;70.66
71304;DHT22;59091;47.446;19.148;2024-02-16T05:21:16;7.26;70.38
71304;DHT22;59091;47.446;19.148;2024-02-16T05:23:42;7.23;70.31
71304;DHT22;59091;47.446;19.148;2024-02-16T05:26:07;7.19;70.33
71304;DHT22;59091;47.446;19.148;2024-02-16T05:28:33;7.15;70.68
71304;DHT22;59091;47.446;19.148;2024-02-16T05:31:12;7.08;70.71
71304;DHT22;59091;47.446;19.148;2024-02-16T05:33:37;7.05;70.68
71304;DHT22;59091;47.446;19.148;2024-02-16T05:36:03;7.00;70.99
71304;DHT22;59091;47.446;19.148;2024-02-16T05:38:28;6.99;71.24
71304;DHT22;59091;47.446;19.148;2024-02-16T05:41:00;6.98;71.27
71304;DHT22;59091;47.446;19.148;2024-02-16T05:43:25;6.93;71.39
71304;DHT22;59091;47.446;19.148;2024-02-16T05:45:51;6.92;71.60
71304;DHT22;59091;47.446;19.148;2024-02-16T05:48:16;6.92;71.58
71304;DHT22;59091;47.446;19.148;2024-02-16T05:50:42;6.85;71.76
71304;DHT22;59091;47.446;19.148;2024-02-16T05:53:09;6.85;71.87
71304;DHT22;59091;47.446;19.148;2024-02-16T05:55:36;6.85;71.85
71304;DHT22;59091;47.446;19.148;2024-02-16T05:58:01;6.88;71.80
71304;DHT22;59091;47.446;19.148;2024-02-16T06:00:27;6.87;72.01
71304;DHT22;59091;47.446;19.148;2024-02-16T06:02:52;6.84;72.03
71304;DHT22;59091;47.446;19.148;2024-02-16T06:05:18;6.85;71.91
71304;DHT22;59091;47.446;19.148;2024-02-16T06:07:45;6.81;71.97
71304;DHT22;59091;47.446;19.148;2024-02-16T06:10:11;6.85;71.93
71304;DHT22;59091;47.446;19.148;2024-02-16T06:12:37;6.85;72.02
71304;DHT22;59091;47.446;19.148;2024-02-16T06:15:04;6.81;72.04
71304;DHT22;59091;47.446;19.148;2024-02-16T06:17:30;6.75;72.59
71304;DHT22;59091;47.446;19.148;2024-02-16T06:19:55;6.78;72.51
71304;DHT22;59091;47.446;19.148;2024-02-16T06:22:20;6.75;72.59
71304;DHT22;59091;47.446;19.148;2024-02-16T06:24:46;6.71;72.86
71304;DHT22;59091;47.446;19.148;2024-02-16T06:27:11;6.77;72.84
71304;DHT22;59091;47.446;19.148;2024-02-16T06:29:37;6.68;73.13
71304;DHT22;59091;47.446;19.148;2024-02-16T06:32:02;6.52;73.61
71304;DHT22;59091;47.446;19.148;2024-02-16T06:34:28;6.51;73.76
71304;DHT22;59091;47.446;19.148;2024-02-16T06:36:53;6.54;73.84
71304;DHT22;59091;47.446;19.148;2024-02-16T06:39:19;6.48;74.07
71304;DHT22;59091;47.446;19.148;2024-02-16T06:41:46;6.59;73.77
71304;DHT22;59091;47.446;19.148;2024-02-16T06:44:12;6.55;73.83
71304;DHT22;59091;47.446;19.148;2024-02-16T06:46:38;6.51;74.11
71304;DHT22;59091;47.446;19.148;2024-02-16T06:49:03;6.51;73.99
71304;DHT22;59091;47.446;19.148;2024-02-16T06:51:29;6.64;73.72
71304;DHT22;59091;47.446;19.148;2024-02-16T06:53:54;6.69;73.45
71304;DHT22;59091;47.446;19.148;2024-02-16T06:56:20;6.85;73.13
71304;DHT22;59091;47.446;19.148;2024-02-16T06:58:46;6.82;73.05
71304;DHT22;59091;47.446;19.148;2024-02-16T07:01:13;7.00;74.81
71304;DHT22;59091;47.446;19.148;2024-02-16T07:03:38;7.09;73.30
71304;DHT22;59091;47.446;19.148;2024-02-16T07:06:04;7.05;72.38
71304;DHT22;59091;47.446;19.148;2024-02-16T07:08:33;7.12;72.09
71304;DHT22;59091;47.446;19.148;2024-02-16T07:10:58;7.08;71.78
71304;DHT22;59091;47.446;19.148;2024-02-16T07:13:23;7.22;72.21
71304;DHT22;59091;47.446;19.148;2024-02-16T07:15:49;7.40;72.68
71304;DHT22;59091;47.446;19.148;2024-02-16T07:18:15;8.13;82.11
71304;DHT22;59091;47.446;19.148;2024-02-16T07:20:41;8.06;74.75
71304;DHT22;59091;47.446;19.148;2024-02-16T07:23:06;7.99;69.95
71304;DHT22;59091;47.446;19.148;2024-02-16T07:25:32;7.87;68.37
71304;DHT22;59091;47.446;19.148;2024-02-16T07:28:08;7.92;71.14
71304;DHT22;59091;47.446;19.148;2024-02-16T07:30:40;8.01;68.98
71304;DHT22;59091;47.446;19.148;2024-02-16T07:33:06;8.48;78.17
71304;DHT22;59091;47.446;19.148;2024-02-16T07:35:34;8.53;70.15
71304;DHT22;59091;47.446;19.148;2024-02-16T07:38:04;8.45;66.54
71304;DHT22;59091;47.446;19.148;2024-02-16T07:40:29;8.42;66.34
71304;DHT22;59091;47.446;19.148;2024-02-16T07:42:56;8.45;66.36
71304;DHT22;59091;47.446;19.148;2024-02-16T07:45:21;8.45;66.26
71304;DHT22;59091;47.446;19.148;2024-02-16T07:47:47;8.29;66.72
71304;DHT22;59091;47.446;19.148;2024-02-16T07:50:12;8.31;65.90
71304;DHT22;59091;47.446;19.148;2024-02-16T07:52:38;8.33;65.59
71304;DHT22;59091;47.446;19.148;2024-02-16T07:55:06;8.62;72.34
71304;DHT22;59091;47.446;19.148;2024-02-16T07:57:31;8.81;72.17
71304;DHT22;59091;47.446;19.148;2024-02-16T07:59:57;8.81;66.14
71304;DHT22;59091;47.446;19.148;2024-02-16T08:02:22;8.83;64.08
71304;DHT22;59091;47.446;19.148;2024-02-16T08:04:48;8.87;63.43
71304;DHT22;59091;47.446;19.148;2024-02-16T08:07:14;9.14;74.70
71304;DHT22;59091;47.446;19.148;2024-02-16T08:09:39;9.04;64.59
71304;DHT22;59091;47.446;19.148;2024-02-16T08:12:05;9.13;62.45
71304;DHT22;59091;47.446;19.148;2024-02-16T08:14:35;9.10;61.54
71304;DHT22;59091;47.446;19.148;2024-02-16T08:17:00;9.17;61.79
71304;DHT22;59091;47.446;19.148;2024-02-16T08:19:32;9.14;60.80
71304;DHT22;59091;47.446;19.148;2024-02-16T08:21:59;9.17;60.93
71304;DHT22;59091;47.446;19.148;2024-02-16T08:24:25;9.23;60.80
71304;DHT22;59091;47.446;19.148;2024-02-16T08:26:51;9.24;61.28
71304;DHT22;59091;47.446;19.148;2024-02-16T08:29:16;9.30;60.56
71304;DHT22;59091;47.446;19.148;2024-02-16T08:31:42;9.18;60.12
71304;DHT22;59091;47.446;19.148;2024-02-16T08:34:09;9.51;63.92
71304;DHT22;59091;47.446;19.148;2024-02-16T08:36:35;10.32;73.70
71304;DHT22;59091;47.446;19.148;2024-02-16T08:39:01;10.33;59.07
71304;DHT22;59091;47.446;19.148;2024-02-16T08:41:27;10.32;56.80
71304;DHT22;59091;47.446;19.148;2024-02-16T08:43:52;10.18;56.53
71304;DHT22;59091;47.446;19.148;2024-02-16T08:46:17;10.21;56.71
71304;DHT22;59091;47.446;19.148;2024-02-16T08:48:46;10.14;56.94
71304;DHT22;59091;47.446;19.148;2024-02-16T08:51:12;10.07;56.86
71304;DHT22;59091;47.446;19.148;2024-02-16T08:53:37;10.00;56.85
71304;DHT22;59091;47.446;19.148;2024-02-16T08:56:03;10.13;57.10
71304;DHT22;59091;47.446;19.148;2024-02-16T08:58:29;10.06;56.60
71304;DHT22;59091;47.446;19.148;2024-02-16T09:00:54;10.12;56.66
71304;DHT22;59091;47.446;19.148;2024-02-16T09:03:20;10.21;56.87
71304;DHT22;59091;47.446;19.148;2024-02-16T09:05:45;10.21;56.87
71304;DHT22;59091;47.446;19.148;2024-02-16T09:08:11;10.26;57.41
71304;DHT22;59091;47.446;19.148;2024-02-16T09:10:38;10.34;59.08
71304;DHT22;59091;47.446;19.148;2024-02-16T09:13:03;10.41;60.16
71304;DHT22;59091;47.446;19.148;2024-02-16T09:15:29;10.77;69.29
71304;DHT22;59091;47.446;19.148;2024-02-16T09:17:54;10.75;56.19
71304;DHT22;59091;47.446;19.148;2024-02-16T09:20:19;10.69;55.99
71304;DHT22;59091;47.446;19.148;2024-02-16T09:22:48;10.72;55.35
71304;DHT22;59091;47.446;19.148;2024-02-16T09:25:14;10.78;54.98
71304;DHT22;59091;47.446;19.148;2024-02-16T09:27:40;10.78;54.78
71304;DHT22;59091;47.446;19.148;2024-02-16T09:30:11;10.79;55.03
71304;DHT22;59091;47.446;19.148;2024-02-16T09:32:39;10.72;53.71
71304;DHT22;59091;47.446;19.148;2024-02-16T09:35:04;11.02;61.69
71304;DHT22;59091;47.446;19.148;2024-02-16T09:37:30;10.92;55.29
71304;DHT22;59091;47.446;19.148;2024-02-16T09:39:55;11.05;54.92
71304;DHT22;59091;47.446;19.148;2024-02-16T09:42:23;11.05;56.29
71304;DHT22;59091;47.446;19.148;2024-02-16T09:44:49;11.05;55.10
71304;DHT22;59091;47.446;19.148;2024-02-16T09:47:15;11.26;56.18
71304;DHT22;59091;47.446;19.148;2024-02-16T09:49:44;11.16;54.08
71304;DHT22;59091;47.446;19.148;2024-02-16T09:52:10;11.23;54.20
71304;DHT22;59091;47.446;19.148;2024-02-16T09:54:37;11.28;53.10
71304;DHT22;59091;47.446;19.148;2024-02-16T09:57:04;11.18;52.80
71304;DHT22;59091;47.446;19.148;2024-02-16T09:59:30;11.22;53.55
71304;DHT22;59091;47.446;19.148;2024-02-16T10:04:31;11.19;52.63
71304;DHT22;59091;47.446;19.148;2024-02-16T10:06:57;11.37;52.64
71304;DHT22;59091;47.446;19.148;2024-02-16T10:09:28;11.43;51.55
71304;DHT22;59091;47.446;19.148;2024-02-16T10:11:58;11.53;57.46
71304;DHT22;59091;47.446;19.148;2024-02-16T10:14:23;11.53;53.23
71304;DHT22;59091;47.446;19.148;2024-02-16T10:17:00;11.30;51.34
71304;DHT22;59091;47.446;19.148;2024-02-16T10:19:28;11.43;51.80
71304;DHT22;59091;47.446;19.148;2024-02-16T10:21:53;11.42;52.18
71304;DHT22;59091;47.446;19.148;2024-02-16T10:24:21;11.43;52.96
71304;DHT22;59091;47.446;19.148;2024-02-16T10:26:47;11.60;53.45
71304;DHT22;59091;47.446;19.148;2024-02-16T10:29:17;11.65;53.54
71304;DHT22;59091;47.446;19.148;2024-02-16T10:31:45;11.76;52.53
71304;DHT22;59091;47.446;19.148;2024-02-16T10:34:10;11.88;52.58
71304;DHT22;59091;47.446;19.148;2024-02-16T10:36:37;11.80;52.72
71304;DHT22;59091;47.446;19.148;2024-02-16T10:39:04;11.83;53.22
71304;DHT22;59091;47.446;19.148;2024-02-16T10:41:33;11.86;53.90
71304;DHT22;59091;47.446;19.148;2024-02-16T10:44:01;12.02;53.67
71304;DHT22;59091;47.446;19.148;2024-02-16T10:46:27;11.94;52.76
71304;DHT22;59091;47.446;19.148;2024-02-16T10:48:53;12.05;52.70
71304;DHT22;59091;47.446;19.148;2024-02-16T10:51:36;12.05;52.40
71304;DHT22;59091;47.446;19.148;2024-02-16T10:54:03;12.16;53.88
71304;DHT22;59091;47.446;19.148;2024-02-16T10:56:34;12.31;53.41
71304;DHT22;59091;47.446;19.148;2024-02-16T10:59:03;12.27;53.08
71304;DHT22;59091;47.446;19.148;2024-02-16T11:01:36;12.35;52.31
71304;DHT22;59091;47.446;19.148;2024-02-16T11:04:08;12.41;53.18
71304;DHT22;59091;47.446;19.148;2024-02-16T11:06:46;12.44;52.07
71304;DHT22;59091;47.446;19.148;2024-02-16T11:09:25;12.35;52.14
71304;DHT22;59091;47.446;19.148;2024-02-16T11:12:01;12.42;51.86
71304;DHT22;59091;47.446;19.148;2024-02-16T11:14:57;12.31;52.33
71304;DHT22;59091;47.446;19.148;2024-02-16T11:17:23;12.38;52.69
71304;DHT22;59091;47.446;19.148;2024-02-16T11:19:49;12.44;52.86
71304;DHT22;59091;47.446;19.148;2024-02-16T11:22:18;12.50;52.32
71304;DHT22;59091;47.446;19.148;2024-02-16T11:24:46;12.35;52.11
71304;DHT22;59091;47.446;19.148;2024-02-16T11:27:11;12.50;52.61
71304;DHT22;59091;47.446;19.148;2024-02-16T11:29:38;12.60;52.17
71304;DHT22;59091;47.446;19.148;2024-02-16T11:32:05;12.70;52.27
71304;DHT22;59091;47.446;19.148;2024-02-16T11:34:32;12.59;52.47
71304;DHT22;59091;47.446;19.148;2024-02-16T11:36:59;12.55;52.27
71304;DHT22;59091;47.446;19.148;2024-02-16T11:39:25;12.49;52.58
71304;DHT22;59091;47.446;19.148;2024-02-16T11:44:33;12.69;51.05
71304;DHT22;59091;47.446;19.148;2024-02-16T11:47:00;12.75;51.08
71304;DHT22;59091;47.446;19.148;2024-02-16T11:49:29;12.75;50.66
71304;DHT22;59091;47.446;19.148;2024-02-16T11:51:54;12.76;51.58
71304;DHT22;59091;47.446;19.148;2024-02-16T11:54:20;12.83;52.19
71304;DHT22;59091;47.446;19.148;2024-02-16T11:56:46;12.89;52.13
71304;DHT22;59091;47.446;19.148;2024-02-16T11:59:13;13.06;51.17
71304;DHT22;59091;47.446;19.148;2024-02-16T12:01:51;13.06;51.74
71304;DHT22;59091;47.446;19.148;2024-02-16T12:04:25;13.10;51.42
71304;DHT22;59091;47.446;19.148;2024-02-16T12:07:02;12.97;50.94
71304;DHT22;59091;47.446;19.148;2024-02-16T12:09:28;13.04;50.84
71304;DHT22;59091;47.446;19.148;2024-02-16T12:11:54;13.11;50.86
71304;DHT22;59091;47.446;19.148;2024-02-16T12:14:23;13.20;50.69
71304;DHT22;59091;47.446;19.148;2024-02-16T12:16:55;13.21;50.67
71304;DHT22;59091;47.446;19.148;2024-02-16T12:19:21;13.10;51.50
71304;DHT22;59091;47.446;19.148;2024-02-16T12:21:57;13.16;51.14
71304;DHT22;59091;47.446;19.148;2024-02-16T12:24:22;13.20;51.08
71304;DHT22;59091;47.446;19.148;2024-02-16T12:26:48;13.16;50.86
71304;DHT22;59091;47.446;19.148;2024-02-16T12:29:14;13.24;50.67
71304;DHT22;59091;47.446;19.148;2024-02-16T12:31:40;13.07;50.49
71304;DHT22;59091;47.446;19.148;2024-02-16T12:34:06;13.16;50.68
71304;DHT22;59091;47.446;19.148;2024-02-16T12:36:33;13.19;51.52
71304;DHT22;59091;47.446;19.148;2024-02-16T12:39:00;13.19;50.69
71304;DHT22;59091;47.446;19.148;2024-02-16T12:41:25;13.44;62.61
71304;DHT22;59091;47.446;19.148;2024-02-16T12:43:51;13.41;50.84
71304;DHT22;59091;47.446;19.148;2024-02-16T12:46:16;13.89;63.26
71304;DHT22;59091;47.446;19.148;2024-02-16T12:48:42;14.59;63.00
71304;DHT22;59091;47.446;19.148;2024-02-16T12:51:07;14.32;48.64
71304;DHT22;59091;47.446;19.148;2024-02-16T12:53:32;13.97;48.51
71304;DHT22;59091;47.446;19.148;2024-02-16T12:56:06;13.98;49.11
71304;DHT22;59091;47.446;19.148;2024-02-16T12:58:33;13.95;50.14
71304;DHT22;59091;47.446;19.148;2024-02-16T13:00:59;13.91;49.41
71304;DHT22;59091;47.446;19.148;2024-02-16T13:03:24;13.74;50.11
71304;DHT22;59091;47.446;19.148;2024-02-16T13:05:49;13.64;50.20
71304;DHT22;59091;47.446;19.148;2024-02-16T13:08:15;13.61;50.60
71304;DHT22;59091;47.446;19.148;2024-02-16T13:10:40;13.65;50.16
71304;DHT22;59091;47.446;19.148;2024-02-16T13:13:07;13.67;50.05
71304;DHT22;59091;47.446;19.148;2024-02-16T13:15:32;13.57;50.26
71304;DHT22;59091;47.446;19.148;2024-02-16T13:17:57;13.61;51.37
71304;DHT22;59091;47.446;19.148;2024-02-16T13:20:23;13.65;50.41
71304;DHT22;59091;47.446;19.148;2024-02-16T13:22:49;13.51;49.61
71304;DHT22;59091;47.446;19.148;2024-02-16T13:25:15;13.43;50.97
71304;DHT22;59091;47.446;19.148;2024-02-16T13:27:40;13.53;50.38
71304;DHT22;59091;47.446;19.148;2024-02-16T13:30:06;13.40;50.97
71304;DHT22;59091;47.446;19.148;2024-02-16T13:32:33;13.31;51.31
71304;DHT22;59091;47.446;19.148;2024-02-16T13:34:59;13.40;51.88
71304;DHT22;59091;47.446;19.148;2024-02-16T13:37:24;13.47;50.66
71304;DHT22;59091;47.446;19.148;2024-02-16T13:39:50;13.53;50.58
71304;DHT22;59091;47.446;19.148;2024-02-16T13:42:16;13.44;51.06
71304;DHT22;59091;47.446;19.148;2024-02-16T13:44:42;13.39;51.01
71304;DHT22;59091;47.446;19.148;2024-02-16T13:47:08;13.86;66.45
71304;DHT22;59091;47.446;19.148;2024-02-16T13:49:34;14.11;54.02
71304;DHT22;59091;47.446;19.148;2024-02-16T13:52:00;14.04;50.57
71304;DHT22;59091;47.446;19.148;2024-02-16T13:54:25;13.92;50.71
71304;DHT22;59091;47.446;19.148;2024-02-16T13:56:51;13.64;50.09
71304;DHT22;59091;47.446;19.148;2024-02-16T13:59:18;13.70;50.46
71304;DHT22;59091;47.446;19.148;2024-02-16T14:01:43;13.65;50.84
71304;DHT22;59091;47.446;19.148;2024-02-16T14:04:09;13.70;50.81
71304;DHT22;59091;47.446;19.148;2024-02-16T14:06:34;13.57;51.22
71304;DHT22;59091;47.446;19.148;2024-02-16T14:09:01;13.74;50.68
71304;DHT22;59091;47.446;19.148;2024-02-16T14:11:34;13.74;50.60
71304;DHT22;59091;47.446;19.148;2024-02-16T14:14:00;13.72;50.75
71304;DHT22;59091;47.446;19.148;2024-02-16T14:16:25;13.74;50.74
71304;DHT22;59091;47.446;19.148;2024-02-16T14:18:50;13.60;51.36
71304;DHT22;59091;47.446;19.148;2024-02-16T14:21:17;13.55;51.07
71304;DHT22;59091;47.446;19.148;2024-02-16T14:23:42;13.53;51.38
71304;DHT22;59091;47.446;19.148;2024-02-16T14:26:09;13.48;51.52
71304;DHT22;59091;47.446;19.148;2024-02-16T14:28:35;13.62;52.70
71304;DHT22;59091;47.446;19.148;2024-02-16T14:31:00;13.50;51.13
71304;DHT22;59091;47.446;19.148;2024-02-16T14:33:26;13.54;52.11
71304;DHT22;59091;47.446;19.148;2024-02-16T14:35:51;13.57;52.47
71304;DHT22;59091;47.446;19.148;2024-02-16T14:38:17;13.48;53.04
71304;DHT22;59091;47.446;19.148;2024-02-16T14:40:42;13.60;52.04
71304;DHT22;59091;47.446;19.148;2024-02-16T14:43:08;13.57;51.23
71304;DHT22;59091;47.446;19.148;2024-02-16T14:45:33;13.40;52.18
71304;DHT22;59091;47.446;19.148;2024-02-16T14:47:59;13.43;51.91
71304;DHT22;59091;47.446;19.148;2024-02-16T14:50:24;13.51;53.87
71304;DHT22;59091;47.446;19.148;2024-02-16T14:52:50;13.47;52.24
71304;DHT22;59091;47.446;19.148;2024-02-16T14:55:15;13.39;52.41
71304;DHT22;59091;47.446;19.148;2024-02-16T14:57:42;13.36;53.32
71304;DHT22;59091;47.446;19.148;2024-02-16T15:00:10;13.99;59.38
71304;DHT22;59091;47.446;19.148;2024-02-16T15:02:36;13.82;52.14
71304;DHT22;59091;47.446;19.148;2024-02-16T15:05:05;13.88;53.08
71304;DHT22;59091;47.446;19.148;2024-02-16T15:07:31;13.88;56.50
71304;DHT22;59091;47.446;19.148;2024-02-16T15:09:56;13.71;52.25
71304;DHT22;59091;47.446;19.148;2024-02-16T15:12:22;13.53;52.39
71304;DHT22;59091;47.446;19.148;2024-02-16T15:14:48;13.44;52.03
71304;DHT22;59091;47.446;19.148;2024-02-16T15:17:14;13.20;52.55
71304;DHT22;59091;47.446;19.148;2024-02-16T15:19:40;13.11;52.98
71304;DHT22;59091;47.446;19.148;2024-02-16T15:22:05;13.07;53.81